createdAt,value
2019-01-15T00:01:23.627Z,-0.90
2019-01-15T00:03:54.063Z,-0.90
2019-01-15T00:06:23.863Z,-0.80
2019-01-15T00:08:53.722Z,-0.90
2019-01-15T00:11:23.563Z,-1.00
2019-01-15T00:13:53.638Z,-1.00
2019-01-15T00:16:23.464Z,-1.10
2019-01-15T00:18:53.456Z,-1.10
2019-01-15T00:21:26.328Z,-1.10
2019-01-15T00:23:56.233Z,-1.10
2019-01-15T00:26:42.139Z,-1.10
2019-01-15T00:29:12.077Z,-1.10
2019-01-15T00:31:41.879Z,-1.00
2019-01-15T00:34:11.751Z,-1.00
2019-01-15T00:36:41.798Z,-1.00
2019-01-15T00:39:11.773Z,-1.00
2019-01-15T00:41:41.648Z,-1.00
2019-01-15T00:44:11.550Z,-0.90
2019-01-15T00:46:42.864Z,-0.90
2019-01-15T00:49:12.667Z,-0.90
2019-01-15T00:51:42.516Z,-0.90
2019-01-15T00:54:12.384Z,-0.80
2019-01-15T00:56:42.213Z,-0.80
2019-01-15T00:59:12.035Z,-0.70
2019-01-15T01:01:42.310Z,-0.70
2019-01-15T01:04:13.213Z,-0.60
2019-01-15T01:06:43.071Z,-0.60
2019-01-15T01:09:14.080Z,-0.40
2019-01-15T01:11:43.896Z,-0.30
2019-01-15T01:14:13.760Z,-0.30
2019-01-15T01:16:45.096Z,-0.30
2019-01-15T01:19:14.946Z,-0.30
2019-01-15T01:21:51.272Z,-0.30
2019-01-15T01:24:21.089Z,-0.30
2019-01-15T01:26:50.960Z,-0.30
2019-01-15T01:29:22.615Z,-0.30
2019-01-15T01:32:05.916Z,-0.30
2019-01-15T01:34:36.170Z,-0.30
2019-01-15T01:37:25.333Z,-0.20
2019-01-15T01:39:55.187Z,-0.30
2019-01-15T01:42:29.424Z,-0.30
2019-01-15T01:44:56.807Z,-0.30
2019-01-15T01:47:26.602Z,-0.20
2019-01-15T01:49:56.427Z,-0.20
2019-01-15T01:52:26.243Z,-0.20
2019-01-15T01:54:56.108Z,-0.20
2019-01-15T01:57:27.102Z,-0.10
2019-01-15T01:59:56.956Z,-0.20
2019-01-15T02:02:26.818Z,-0.10
2019-01-15T02:04:56.852Z,-0.10
2019-01-15T02:07:26.770Z,-0.20
2019-01-15T02:09:56.615Z,-0.20
2019-01-15T02:12:28.123Z,-0.10
2019-01-15T02:14:57.915Z,0.00
2019-01-15T02:17:27.787Z,-0.10
2019-01-15T02:19:57.628Z,-0.10
2019-01-15T02:22:27.473Z,-0.20
2019-01-15T02:24:57.390Z,-0.30
2019-01-15T02:27:27.527Z,-0.30
2019-01-15T02:29:57.411Z,-0.30
2019-01-15T02:32:27.215Z,-0.40
2019-01-15T02:34:57.050Z,-0.50
2019-01-15T02:37:26.947Z,-0.60
2019-01-15T02:39:56.843Z,-0.60
2019-01-15T02:42:26.643Z,-0.50
2019-01-15T02:44:56.487Z,-0.50
2019-01-15T02:47:26.312Z,-0.50
2019-01-15T02:49:56.170Z,-0.50
2019-01-15T02:52:25.990Z,-0.50
2019-01-15T02:54:56.872Z,-0.50
2019-01-15T02:57:27.826Z,-0.40
2019-01-15T02:59:58.674Z,-0.50
2019-01-15T03:02:28.510Z,-0.50
2019-01-15T03:04:58.318Z,-0.50
2019-01-15T03:07:28.160Z,-0.50
2019-01-15T03:09:57.946Z,-0.50
2019-01-15T03:12:27.806Z,-0.40
2019-01-15T03:14:57.575Z,-0.50
2019-01-15T03:17:27.368Z,-0.50
2019-01-15T03:19:57.195Z,-0.40
2019-01-15T03:22:27.023Z,-0.40
2019-01-15T03:24:56.903Z,-0.40
2019-01-15T03:27:26.750Z,-0.30
2019-01-15T03:29:56.556Z,-0.40
2019-01-15T03:32:26.402Z,-0.40
2019-01-15T03:34:56.216Z,-0.30
2019-01-15T03:37:26.038Z,-0.40
2019-01-15T03:39:55.846Z,-0.30
2019-01-15T03:42:25.720Z,-0.40
2019-01-15T03:44:55.610Z,-0.50
2019-01-15T03:47:25.439Z,-0.50
2019-01-15T03:49:55.287Z,-0.40
2019-01-15T03:52:25.359Z,-0.40
2019-01-15T03:54:55.425Z,-0.50
2019-01-15T03:57:25.238Z,-0.50
2019-01-15T03:59:55.050Z,-0.50
2019-01-15T04:02:25.079Z,-0.50
2019-01-15T04:04:54.857Z,-0.50
2019-01-15T04:07:25.052Z,-0.50
2019-01-15T04:09:57.835Z,-0.40
2019-01-15T04:12:27.798Z,-0.60
2019-01-15T04:14:57.601Z,-0.70
2019-01-15T04:17:27.463Z,-0.80
2019-01-15T04:19:57.288Z,-1.00
2019-01-15T04:22:27.368Z,-1.10
2019-01-15T04:24:57.159Z,-1.10
2019-01-15T04:27:27.053Z,-1.10
2019-01-15T04:29:56.929Z,-1.20
2019-01-15T04:32:26.675Z,-1.20
2019-01-15T04:34:56.504Z,-1.30
2019-01-15T04:37:26.397Z,-1.40
2019-01-15T04:39:56.328Z,-1.40
2019-01-15T04:42:26.133Z,-1.30
2019-01-15T04:44:56.194Z,-1.40
2019-01-15T04:47:26.040Z,-1.40
2019-01-15T04:49:55.846Z,-1.40
2019-01-15T04:52:26.159Z,-1.40
2019-01-15T04:54:55.999Z,-1.50
2019-01-15T04:57:25.768Z,-1.50
2019-01-15T04:59:55.688Z,-1.40
2019-01-15T05:02:25.559Z,-1.30
2019-01-15T05:04:55.447Z,-1.30
2019-01-15T05:07:25.320Z,-1.40
2019-01-15T05:09:55.094Z,-1.30
2019-01-15T05:12:24.960Z,-1.30
2019-01-15T05:14:54.765Z,-1.20
2019-01-15T05:17:24.565Z,-1.20
2019-01-15T05:19:54.398Z,-1.20
2019-01-15T05:22:24.198Z,-1.20
2019-01-15T05:24:59.686Z,-1.20
2019-01-15T05:27:35.602Z,-1.20
2019-01-15T05:30:08.337Z,-1.20
2019-01-15T05:32:38.207Z,-1.10
2019-01-15T05:35:08.200Z,-1.10
2019-01-15T05:37:38.040Z,-1.20
2019-01-15T05:40:10.846Z,-1.10
2019-01-15T05:42:40.633Z,-1.00
2019-01-15T05:45:15.126Z,-1.10
2019-01-15T05:47:45.245Z,-1.10
2019-01-15T05:50:16.598Z,-1.10
2019-01-15T05:52:46.438Z,-1.10
2019-01-15T05:55:35.684Z,-1.10
2019-01-15T05:58:05.677Z,-1.10
2019-01-15T06:00:35.518Z,-1.10
2019-01-15T06:03:05.843Z,-1.10
2019-01-15T06:05:37.958Z,-1.10
2019-01-15T06:08:07.757Z,-1.20
2019-01-15T06:10:39.656Z,-1.20
2019-01-15T06:13:09.763Z,-1.20
2019-01-15T06:15:40.646Z,-1.20
2019-01-15T06:18:13.062Z,-1.20
2019-01-15T06:20:42.923Z,-1.30
2019-01-15T06:23:12.719Z,-1.30
2019-01-15T06:25:42.483Z,-1.20
2019-01-15T06:28:12.358Z,-1.10
2019-01-15T06:30:42.280Z,-1.10
2019-01-15T06:33:12.133Z,-1.10
2019-01-15T06:36:01.166Z,-1.10
2019-01-15T06:38:31.038Z,-1.10
2019-01-15T06:41:00.849Z,-1.20
2019-01-15T06:43:30.682Z,-1.30
2019-01-15T06:46:00.553Z,-1.40
2019-01-15T06:48:30.364Z,-1.30
2019-01-15T06:51:00.223Z,-1.20
2019-01-15T06:53:30.054Z,-1.20
2019-01-15T06:55:59.890Z,-1.00
2019-01-15T06:58:29.734Z,-0.90
2019-01-15T07:00:59.551Z,-0.90
2019-01-15T07:03:29.402Z,-1.10
2019-01-15T07:06:00.305Z,-1.10
2019-01-15T07:08:30.220Z,-1.10
2019-01-15T07:11:00.417Z,-1.10
2019-01-15T07:13:30.929Z,-1.00
2019-01-15T07:16:01.656Z,-1.00
2019-01-15T07:18:31.543Z,-1.00
2019-01-15T07:21:01.383Z,-0.90
2019-01-15T07:23:31.166Z,-0.80
2019-01-15T07:26:01.102Z,-0.60
2019-01-15T07:28:30.935Z,-0.60
2019-01-15T07:31:00.805Z,-0.50
2019-01-15T07:33:32.026Z,-0.50
2019-01-15T07:36:01.897Z,-0.50
2019-01-15T07:38:31.711Z,-0.40
2019-01-15T07:41:01.980Z,-0.30
2019-01-15T07:43:32.891Z,-0.30
2019-01-15T07:46:02.889Z,-0.40
2019-01-15T07:48:32.689Z,-0.30
2019-01-15T07:51:02.616Z,-0.10
2019-01-15T07:53:32.465Z,-0.20
2019-01-15T07:56:02.303Z,0.00
2019-01-15T07:58:32.128Z,0.00
2019-01-15T08:01:02.664Z,0.00
2019-01-15T08:03:32.495Z,0.20
2019-01-15T08:06:03.544Z,0.20
2019-01-15T08:08:33.382Z,0.10
2019-01-15T08:11:05.696Z,0.00
2019-01-15T08:13:35.560Z,0.00
2019-01-15T08:16:05.416Z,0.20
2019-01-15T08:18:35.264Z,0.50
2019-01-15T08:21:05.136Z,1.60
2019-01-15T08:23:35.023Z,1.80
2019-01-15T08:26:04.861Z,1.20
2019-01-15T08:28:34.737Z,1.00
2019-01-15T08:31:04.576Z,1.80
2019-01-15T08:33:34.416Z,2.60
2019-01-15T08:36:04.267Z,3.00
2019-01-15T08:38:34.067Z,2.80
2019-01-15T08:41:03.904Z,2.30
2019-01-15T08:43:33.704Z,1.80
2019-01-15T08:46:07.303Z,2.10
2019-01-15T08:48:39.136Z,2.90
2019-01-15T08:51:09.343Z,2.80
2019-01-15T08:53:39.616Z,2.40
2019-01-15T08:56:09.864Z,1.80
2019-01-15T08:58:39.664Z,1.60
2019-01-15T09:01:09.537Z,1.40
2019-01-15T09:03:39.376Z,1.60
2019-01-15T09:06:09.217Z,1.50
2019-01-15T09:08:39.082Z,1.40
2019-01-15T09:11:08.870Z,1.70
2019-01-15T09:13:38.690Z,3.00
2019-01-15T09:16:09.660Z,4.80
2019-01-15T09:18:39.588Z,4.60
2019-01-15T09:21:09.417Z,3.40
2019-01-15T09:23:39.257Z,2.70
2019-01-15T09:26:09.105Z,2.00
2019-01-15T09:28:38.963Z,1.90
2019-01-15T09:31:08.859Z,1.80
2019-01-15T09:33:38.711Z,1.70
2019-01-15T09:36:08.534Z,1.60
2019-01-15T09:38:52.511Z,1.50
2019-01-15T09:41:22.714Z,1.60
2019-01-15T09:43:52.725Z,2.10
2019-01-15T09:46:22.549Z,2.20
2019-01-15T09:48:52.774Z,1.80
2019-01-15T09:51:22.699Z,1.70
2019-01-15T09:53:52.545Z,1.40
2019-01-15T09:56:22.352Z,1.10
2019-01-15T09:58:52.277Z,1.10
2019-01-15T10:01:22.236Z,0.80
2019-01-15T10:03:52.195Z,0.80
2019-01-15T10:06:22.238Z,0.70
2019-01-15T10:08:52.397Z,0.70
2019-01-15T10:11:22.404Z,0.90
2019-01-15T10:13:52.627Z,0.90
2019-01-15T10:16:23.915Z,1.00
2019-01-15T10:18:55.556Z,1.30
2019-01-15T10:21:25.637Z,1.60
2019-01-15T10:23:55.595Z,2.00
2019-01-15T10:26:25.653Z,1.60
2019-01-15T10:28:56.356Z,1.70
2019-01-15T10:34:44.676Z,1.40
2019-01-15T10:37:16.748Z,1.40
2019-01-15T10:39:46.639Z,1.20
2019-01-15T10:42:17.307Z,1.10
2019-01-15T10:44:48.771Z,0.90
2019-01-15T10:47:20.266Z,0.90
2019-01-15T10:49:50.987Z,0.80
2019-01-15T10:52:27.156Z,0.90
2019-01-15T10:54:57.720Z,1.00
2019-01-15T10:57:28.835Z,1.00
2019-01-15T10:59:58.641Z,1.00
2019-01-15T11:02:28.846Z,1.00
2019-01-15T11:04:59.033Z,0.90
2019-01-15T11:07:29.492Z,1.10
2019-01-15T11:09:59.307Z,1.10
2019-01-15T11:12:29.205Z,1.10
2019-01-15T11:15:00.382Z,1.10
2019-01-15T11:17:31.354Z,1.20
2019-01-15T11:20:03.303Z,1.20
2019-01-15T11:25:07.349Z,1.30
2019-01-15T11:27:38.201Z,1.20
2019-01-15T11:30:11.475Z,1.20
2019-01-15T11:32:44.984Z,1.10
2019-01-15T11:35:16.583Z,1.20
2019-01-15T11:37:47.332Z,1.30
2019-01-15T11:40:20.802Z,1.40
2019-01-15T11:42:50.796Z,1.30
2019-01-15T11:45:21.394Z,1.20
2019-01-15T11:47:55.187Z,1.20
2019-01-15T11:50:27.319Z,1.20
2019-01-15T11:52:57.825Z,1.10
2019-01-15T11:55:29.440Z,1.00
2019-01-15T11:58:12.162Z,1.00
2019-01-15T12:00:56.008Z,0.90
2019-01-15T12:03:36.512Z,0.80
2019-01-15T12:06:08.049Z,0.70
2019-01-15T12:08:39.442Z,0.60
2019-01-15T12:11:23.012Z,0.50
2019-01-15T12:13:55.052Z,0.50
2019-01-15T12:16:36.846Z,0.50
2019-01-15T12:19:19.051Z,0.50
2019-01-15T12:22:06.845Z,0.50
2019-01-15T12:24:43.090Z,0.50
2019-01-15T12:27:27.641Z,0.50
2019-01-15T12:30:06.081Z,0.50
2019-01-15T12:32:40.328Z,0.50
2019-01-15T12:35:21.999Z,0.50
2019-01-15T12:37:53.443Z,0.60
2019-01-15T12:40:30.975Z,0.60
2019-01-15T12:43:32.811Z,0.60
2019-01-15T12:46:19.476Z,0.60
2019-01-15T12:48:53.365Z,0.60
2019-01-15T12:51:24.880Z,0.60
2019-01-15T12:54:13.028Z,0.70
2019-01-15T12:57:01.031Z,0.70
2019-01-15T12:59:43.188Z,0.70
2019-01-15T13:02:22.162Z,0.60
2019-01-15T13:04:53.636Z,0.70
2019-01-15T13:07:36.718Z,0.70
2019-01-15T13:10:23.286Z,0.70
2019-01-15T13:12:57.028Z,0.70
2019-01-15T13:15:34.761Z,0.70
2019-01-15T13:18:05.643Z,0.70
2019-01-15T13:20:46.065Z,0.80
2019-01-15T13:23:33.651Z,0.70
2019-01-15T13:26:05.179Z,0.80
2019-01-15T13:28:43.651Z,0.80
2019-01-15T13:31:15.072Z,0.80
2019-01-15T13:33:58.377Z,0.80
2019-01-15T13:36:41.978Z,0.90
2019-01-15T13:39:28.375Z,0.90
2019-01-15T13:42:15.796Z,0.80
2019-01-15T13:45:05.510Z,0.80
2019-01-15T13:47:50.702Z,0.90
2019-01-15T13:50:37.181Z,0.90
2019-01-15T13:53:08.576Z,1.00
2019-01-15T13:55:42.536Z,1.00
2019-01-15T13:58:33.261Z,1.00
2019-01-15T14:01:10.655Z,0.90
2019-01-15T14:03:48.119Z,0.90
2019-01-15T14:06:19.512Z,1.00
2019-01-15T14:09:03.235Z,1.00
2019-01-15T14:11:51.591Z,1.00
2019-01-15T14:14:31.947Z,1.00
2019-01-15T14:17:03.343Z,1.00
2019-01-15T14:19:34.778Z,1.10
2019-01-15T14:22:21.938Z,1.10
2019-01-15T14:24:58.453Z,1.10
2019-01-15T14:27:27.644Z,1.10
2019-01-15T14:30:01.940Z,1.10
2019-01-15T14:32:42.377Z,1.20
2019-01-15T14:35:14.976Z,1.20
2019-01-15T14:38:04.205Z,1.10
2019-01-15T14:40:45.104Z,1.20
2019-01-15T14:43:26.067Z,1.30
2019-01-15T14:46:12.817Z,1.20
2019-01-15T14:48:50.844Z,1.30
2019-01-15T14:51:22.522Z,1.30
2019-01-15T14:53:57.060Z,1.40
2019-01-15T14:56:35.512Z,1.40
2019-01-15T14:59:28.183Z,1.40
2019-01-15T15:02:05.853Z,1.50
2019-01-15T15:04:40.637Z,1.40
2019-01-15T15:07:22.869Z,1.50
2019-01-15T15:10:06.637Z,1.50
2019-01-15T15:12:38.751Z,1.40
2019-01-15T15:15:19.505Z,1.40
2019-01-15T15:17:54.654Z,1.40
2019-01-15T15:20:43.197Z,1.50
2019-01-15T15:23:18.853Z,1.60
2019-01-15T15:26:00.320Z,1.70
2019-01-15T15:28:51.721Z,1.90
2019-01-15T15:31:26.385Z,1.90
2019-01-15T15:34:02.356Z,1.90
2019-01-15T15:36:51.234Z,1.90
2019-01-15T15:39:40.217Z,1.90
2019-01-15T15:42:12.128Z,1.90
2019-01-15T15:44:50.568Z,1.80
2019-01-15T15:47:40.450Z,1.80
2019-01-15T15:53:10.774Z,1.80
2019-01-15T15:55:42.241Z,1.70
2019-01-15T15:58:16.669Z,1.80
2019-01-15T16:00:48.122Z,1.70
2019-01-15T16:03:22.327Z,1.80
2019-01-15T16:05:57.023Z,1.80
2019-01-15T16:08:31.615Z,1.80
2019-01-15T16:11:14.491Z,1.80
2019-01-15T16:13:46.681Z,1.90
2019-01-15T16:16:24.554Z,1.80
2019-01-15T16:19:11.071Z,1.90
2019-01-15T16:22:00.381Z,1.90
2019-01-15T16:24:36.982Z,1.90
2019-01-15T16:27:26.825Z,2.00
2019-01-15T16:30:06.040Z,2.00
2019-01-15T16:32:46.447Z,2.00
2019-01-15T16:35:37.888Z,2.00
2019-01-15T16:38:25.574Z,2.00
2019-01-15T16:41:13.861Z,2.00
2019-01-15T16:43:58.077Z,2.00
2019-01-15T16:46:40.667Z,2.00
2019-01-15T16:49:15.629Z,2.00
2019-01-15T16:52:05.617Z,2.10
2019-01-15T16:54:43.777Z,1.90
2019-01-15T16:57:15.991Z,1.90
2019-01-15T17:00:04.244Z,1.90
2019-01-15T17:02:37.488Z,1.90
2019-01-15T17:05:17.718Z,1.80
2019-01-15T17:07:50.655Z,1.80
2019-01-15T17:10:23.490Z,1.80
2019-01-15T17:12:58.548Z,1.80
2019-01-15T17:15:50.020Z,1.80
2019-01-15T17:18:41.373Z,1.70
2019-01-15T17:21:12.771Z,1.80
2019-01-15T17:23:45.288Z,1.70
2019-01-15T17:26:33.485Z,1.70
2019-01-15T17:29:04.873Z,1.70
2019-01-15T17:34:25.267Z,1.60
2019-01-15T17:36:58.557Z,1.60
2019-01-15T17:39:42.082Z,1.60
2019-01-15T17:42:22.855Z,1.50
2019-01-15T17:44:57.787Z,1.50
2019-01-15T17:47:35.514Z,1.50
2019-01-15T17:50:23.825Z,1.50
2019-01-15T17:53:08.838Z,1.50
2019-01-15T17:55:46.074Z,1.50
2019-01-15T17:58:22.357Z,1.50
2019-01-15T18:03:54.317Z,1.50
2019-01-15T18:06:30.957Z,1.50
2019-01-15T18:09:11.465Z,1.40
2019-01-15T18:11:58.158Z,1.50
2019-01-15T18:14:29.658Z,1.50
2019-01-15T18:17:09.267Z,1.40
2019-01-15T18:19:59.649Z,1.40
2019-01-15T18:22:51.257Z,1.40
2019-01-15T18:25:35.250Z,1.40
2019-01-15T18:28:13.363Z,1.40
2019-01-15T18:31:02.873Z,1.40
2019-01-15T18:33:51.265Z,1.40
2019-01-15T18:36:23.050Z,1.40
2019-01-15T18:38:54.659Z,1.40
2019-01-15T18:41:36.870Z,1.40
2019-01-15T18:44:15.468Z,1.30
2019-01-15T18:47:00.143Z,1.30
2019-01-15T18:49:37.973Z,1.30
2019-01-15T18:52:12.144Z,1.40
2019-01-15T18:55:09.339Z,1.30
2019-01-15T18:57:54.659Z,1.40
2019-01-15T19:00:29.015Z,1.40
2019-01-15T19:03:16.946Z,1.40
2019-01-15T19:06:00.499Z,1.50
2019-01-15T19:08:35.228Z,1.50
2019-01-15T19:11:15.096Z,1.40
2019-01-15T19:13:49.689Z,1.40
2019-01-15T19:16:37.578Z,1.40
2019-01-15T19:19:12.379Z,1.40
2019-01-15T19:21:46.938Z,1.40
2019-01-15T19:24:48.941Z,1.50
2019-01-15T19:27:20.619Z,1.50
2019-01-15T19:30:07.381Z,1.50
2019-01-15T19:32:55.538Z,1.40
2019-01-15T19:35:44.171Z,1.40
2019-01-15T19:38:15.979Z,1.40
2019-01-15T19:40:53.212Z,1.50
2019-01-15T19:43:34.979Z,1.40
2019-01-15T19:46:18.618Z,1.50
2019-01-15T19:49:03.603Z,1.50
2019-01-15T19:51:45.569Z,1.50
2019-01-15T19:54:23.081Z,1.60
2019-01-15T19:57:03.748Z,1.60
2019-01-15T19:59:41.333Z,1.50
2019-01-15T20:02:30.659Z,1.60
2019-01-15T20:05:19.302Z,1.60
2019-01-15T20:07:58.241Z,1.60
2019-01-15T20:10:38.705Z,1.60
2019-01-15T20:13:10.292Z,1.60
2019-01-15T20:15:47.147Z,1.60
2019-01-15T20:18:21.969Z,1.60
2019-01-15T20:20:53.730Z,1.50
2019-01-15T20:23:31.396Z,1.50
2019-01-15T20:26:18.865Z,1.50
2019-01-15T20:29:02.564Z,1.50
2019-01-15T20:31:40.136Z,1.60
2019-01-15T20:34:15.810Z,1.60
2019-01-15T20:37:09.818Z,1.60
2019-01-15T20:39:41.362Z,1.70
2019-01-15T20:42:23.465Z,1.70
2019-01-15T20:44:57.897Z,1.70
2019-01-15T20:47:46.161Z,1.70
2019-01-15T20:50:28.442Z,1.70
2019-01-15T20:56:16.901Z,1.80
2019-01-15T20:58:57.771Z,1.80
2019-01-15T21:01:50.708Z,1.80
2019-01-15T21:04:22.597Z,1.80
2019-01-15T21:07:04.058Z,1.80
2019-01-15T21:09:36.479Z,1.80
2019-01-15T21:12:14.659Z,1.80
2019-01-15T21:14:57.590Z,1.80
2019-01-15T21:17:44.859Z,1.80
2019-01-15T21:20:24.561Z,1.80
2019-01-15T21:22:56.299Z,1.70
2019-01-15T21:25:39.770Z,1.80
2019-01-15T21:28:13.414Z,1.80
2019-01-15T21:31:05.427Z,1.80
2019-01-15T21:33:41.499Z,1.80
2019-01-15T21:36:34.449Z,1.80
2019-01-15T21:39:07.210Z,1.80
2019-01-15T21:41:49.691Z,1.80
2019-01-15T21:44:22.437Z,1.80
2019-01-15T21:47:03.801Z,1.80
2019-01-15T21:49:47.659Z,1.80
2019-01-15T21:52:34.397Z,1.80
2019-01-15T21:55:06.755Z,1.80
2019-01-15T21:57:55.229Z,1.80
2019-01-15T22:00:42.964Z,1.80
2019-01-15T22:03:17.062Z,1.80
2019-01-15T22:05:54.221Z,1.80
2019-01-15T22:08:25.650Z,1.70
2019-01-15T22:10:57.188Z,1.70
2019-01-15T22:13:41.607Z,1.60
2019-01-15T22:16:20.331Z,1.60
2019-01-15T22:18:51.902Z,1.60
2019-01-15T22:21:26.214Z,1.60
2019-01-15T22:24:12.785Z,1.60
2019-01-15T22:26:49.893Z,1.60
2019-01-15T22:29:24.030Z,1.60
2019-01-15T22:32:13.610Z,1.60
2019-01-15T22:34:48.057Z,1.70
2019-01-15T22:37:19.646Z,1.80
2019-01-15T22:39:51.479Z,1.80
2019-01-15T22:42:22.901Z,1.80
2019-01-15T22:45:06.356Z,1.80
2019-01-15T22:47:43.809Z,1.80
2019-01-15T22:50:24.535Z,1.90
2019-01-15T22:52:55.970Z,1.90
2019-01-15T22:55:44.080Z,1.90
2019-01-15T22:58:15.708Z,1.90
2019-01-15T23:01:04.643Z,1.90
2019-01-15T23:03:42.447Z,2.00
2019-01-15T23:06:32.534Z,2.10
2019-01-15T23:09:21.250Z,2.00
2019-01-15T23:11:56.345Z,2.00
2019-01-15T23:14:33.326Z,2.00
2019-01-15T23:17:20.417Z,2.00
2019-01-15T23:20:01.478Z,2.00
2019-01-15T23:22:42.484Z,2.00
2019-01-15T23:25:18.045Z,2.10
2019-01-15T23:28:07.166Z,2.10
2019-01-15T23:30:38.655Z,2.10
2019-01-15T23:33:09.997Z,2.10
2019-01-15T23:36:02.044Z,2.10
2019-01-15T23:38:36.446Z,2.20
2019-01-15T23:41:07.997Z,2.20
2019-01-15T23:43:41.486Z,2.20
2019-01-15T23:46:20.098Z,2.20
2019-01-15T23:49:01.884Z,2.20
2019-01-15T23:51:48.449Z,2.30
2019-01-15T23:54:36.146Z,2.30
2019-01-15T23:57:25.744Z,2.20
